Terminal Aerodrome Forecast
Issued by NWS

Home | Current Version | Previous Version | Text Only | Print | Product List | Glossary On
Versions: 1 2 3 4 5 6 7 8 9 10 11 12 13 14 15 16 17 18 19
000
FTUS43 KMPX 140520
TAFRNH
TAF
KRNH 140520Z 1406/1506 VRB02KT P6SM SCT120
     FM141200 08006KT P6SM BKN200
     FM141600 10009KT P6SM BKN090
     FM142100 04007KT P6SM -SHRA BKN020 OVC050
     FM150000 36012KT P6SM -SHRA OVC015=

USA.gov is the U.S. government's official web portal to all federal, state and local government web resources and services.